Time;durP1;ratioP1;P1;durP2;ratioP2;P2;SDS_P1;SDS_P2;PMS_P1;PMS_P2;Temp;Humidity;BMP_temperature;BMP_pressure;BME280_temperature;BME280_humidity;BME280_pressure;Samples;Min_cycle;Max_cycle;Signal;HPM_P1;HPM_P2
2021/12/30 00:02:20;;;;;;;;;;;14.40;99.90;;;;;;5073441;28;20007;-64
2021/12/30 00:04:46;;;;;;;;;;;14.40;99.90;;;;;;5072081;28;19917;-65
2021/12/30 00:07:12;;;;;;;;;;;14.40;99.90;;;;;;5073828;28;19921;-65
2021/12/30 00:09:37;;;;;;;;;;;14.40;99.90;;;;;;5071715;28;19928;-65
2021/12/30 00:12:04;;;;;;;;;;;14.40;99.90;;;;;;5073597;28;19915;-64
2021/12/30 00:14:30;;;;;;;;;;;14.40;99.90;;;;;;5073048;28;19912;-65
2021/12/30 00:16:55;;;;;;;;;;;14.40;99.90;;;;;;5073698;28;20267;-64
2021/12/30 00:19:21;;;;;;;;;;;14.40;99.90;;;;;;5073387;28;20416;-64
2021/12/30 00:21:46;;;;;;;;;;;14.40;99.90;;;;;;5054513;28;19912;-64
2021/12/30 00:24:12;;;;;;;;;;;14.40;99.90;;;;;;5071258;28;19908;-65
2021/12/30 00:26:37;;;;;;;;;;;14.40;99.90;;;;;;5073206;28;19967;-64
2021/12/30 00:29:04;;;;;;;;;;;14.40;99.90;;;;;;5073402;28;19919;-65
2021/12/30 00:31:29;;;;;;;;;;;14.50;99.90;;;;;;5073219;28;19912;-64
2021/12/30 00:33:55;;;;;;;;;;;14.50;99.90;;;;;;5073090;28;19912;-65
2021/12/30 00:36:20;;;;;;;;;;;14.50;99.90;;;;;;5071010;28;20270;-65
2021/12/30 00:38:46;;;;;;;;;;;14.50;99.90;;;;;;5055314;28;20316;-64
2021/12/30 00:41:12;;;;;;;;;;;14.50;99.90;;;;;;5073417;28;19919;-64
2021/12/30 00:43:37;;;;;;;;;;;14.40;99.90;;;;;;5072133;28;20262;-64
2021/12/30 00:46:04;;;;;;;;;;;14.40;99.90;;;;;;5073201;28;19915;-64
2021/12/30 00:48:29;;;;;;;;;;;14.50;99.90;;;;;;5070850;28;20361;-65
2021/12/30 00:50:55;;;;;;;;;;;14.40;99.90;;;;;;5073039;28;19950;-65
2021/12/30 00:53:20;;;;;;;;;;;14.40;99.90;;;;;;5072741;28;19912;-64
2021/12/30 00:55:46;;;;;;;;;;;14.40;99.90;;;;;;5073580;28;19991;-63
2021/12/30 00:58:12;;;;;;;;;;;14.40;99.90;;;;;;5073250;28;19919;-62
2021/12/30 01:00:39;;;;;;;;;;;14.40;99.90;;;;;;5071993;28;19927;-64
2021/12/30 01:03:05;;;;;;;;;;;14.40;99.90;;;;;;5070886;28;19908;-64
2021/12/30 01:05:31;;;;;;;;;;;14.40;99.90;;;;;;5072803;28;20003;-64
2021/12/30 01:07:56;;;;;;;;;;;14.40;99.90;;;;;;5072806;28;20427;-65
2021/12/30 01:10:25;;;;;;;;;;;14.40;99.90;;;;;;5072897;28;19924;-64
2021/12/30 01:12:54;;;;;;;;;;;14.50;99.90;;;;;;5072859;28;19913;-65
2021/12/30 01:15:21;;;;;;;;;;;14.40;99.90;;;;;;5070608;28;19908;-65
2021/12/30 01:20:16;;;;;;;;;;;14.40;99.90;;;;;;5072810;28;19939;-65
2021/12/30 01:22:42;;;;;;;;;;;14.40;99.90;;;;;;5071347;28;19914;-64
2021/12/30 01:25:08;;;;;;;;;;;14.50;99.90;;;;;;5072994;28;19920;-65
2021/12/30 01:27:39;;;;;;;;;;;14.40;99.90;;;;;;5071023;28;19917;-65
2021/12/30 01:30:10;;;;;;;;;;;14.40;99.90;;;;;;5071897;28;19916;-65
2021/12/30 01:32:35;;;;;;;;;;;14.40;99.90;;;;;;5054534;28;19912;-63
2021/12/30 01:35:03;;;;;;;;;;;14.40;99.90;;;;;;5054709;28;19912;-66
2021/12/30 01:37:29;;;;;;;;;;;14.40;99.90;;;;;;5072617;28;19912;-65
2021/12/30 01:39:54;;;;;;;;;;;14.40;99.90;;;;;;5071700;28;20436;-63
2021/12/30 01:42:20;;;;;;;;;;;14.40;99.90;;;;;;5072534;28;19908;-65
2021/12/30 01:44:46;;;;;;;;;;;14.40;99.90;;;;;;5075074;28;19915;-64
2021/12/30 01:47:12;;;;;;;;;;;14.40;99.90;;;;;;5076146;28;19920;-65
2021/12/30 01:49:37;;;;;;;;;;;14.40;99.90;;;;;;5076366;28;19919;-64
2021/12/30 01:52:03;;;;;;;;;;;14.40;99.90;;;;;;5076646;28;19912;-64
2021/12/30 01:54:29;;;;;;;;;;;14.40;99.90;;;;;;5074123;28;19958;-65
2021/12/30 01:56:58;;;;;;;;;;;14.40;99.90;;;;;;5058255;28;19919;-64
2021/12/30 01:59:24;;;;;;;;;;;14.40;99.90;;;;;;5076468;28;20349;-61
2021/12/30 02:01:56;;;;;;;;;;;14.40;99.90;;;;;;5074877;28;19919;-65
2021/12/30 02:04:22;;;;;;;;;;;14.40;99.90;;;;;;5076232;28;19916;-62
2021/12/30 02:06:48;;;;;;;;;;;14.40;99.90;;;;;;5076038;28;19921;-64
2021/12/30 02:09:15;;;;;;;;;;;14.40;99.90;;;;;;5073964;28;19916;-64
2021/12/30 02:11:41;;;;;;;;;;;14.40;99.90;;;;;;5075629;28;19920;-63
2021/12/30 02:14:07;;;;;;;;;;;14.40;99.90;;;;;;5075756;28;20351;-64
2021/12/30 02:16:32;;;;;;;;;;;14.40;99.90;;;;;;5075789;28;19921;-64
2021/12/30 02:18:58;;;;;;;;;;;14.30;99.90;;;;;;5074879;28;19947;-64
2021/12/30 02:21:23;;;;;;;;;;;14.30;99.90;;;;;;5073566;28;19913;-65
2021/12/30 02:23:49;;;;;;;;;;;14.40;99.90;;;;;;5075606;28;19991;-64
2021/12/30 02:26:16;;;;;;;;;;;14.40;99.90;;;;;;5075300;28;19921;-64
2021/12/30 02:28:42;;;;;;;;;;;14.30;99.90;;;;;;5075823;28;20122;-65
2021/12/30 02:31:10;;;;;;;;;;;14.40;99.90;;;;;;5075960;28;19934;-63
2021/12/30 02:33:36;;;;;;;;;;;14.30;99.90;;;;;;5073922;28;19909;-63
2021/12/30 02:36:02;;;;;;;;;;;14.30;99.90;;;;;;5075342;28;20050;-65
2021/12/30 02:38:28;;;;;;;;;;;14.40;99.90;;;;;;5075513;28;19912;-65
2021/12/30 02:40:55;;;;;;;;;;;14.40;99.90;;;;;;5074060;28;19938;-65
2021/12/30 02:43:23;;;;;;;;;;;14.30;99.90;;;;;;5075139;28;19912;-65
2021/12/30 02:45:48;;;;;;;;;;;14.30;99.90;;;;;;5075389;28;20686;-65
2021/12/30 02:48:15;;;;;;;;;;;14.30;99.90;;;;;;5069145;28;19926;-66
2021/12/30 02:50:41;;;;;;;;;;;14.40;99.90;;;;;;5075187;28;19913;-65
2021/12/30 02:53:07;;;;;;;;;;;14.40;99.90;;;;;;5074909;28;20011;-65
2021/12/30 02:55:32;;;;;;;;;;;14.30;99.90;;;;;;5075687;28;19984;-64
2021/12/30 02:57:58;;;;;;;;;;;14.30;99.90;;;;;;5073383;28;19913;-66
2021/12/30 03:00:24;;;;;;;;;;;14.30;99.90;;;;;;5073676;28;19908;-65
2021/12/30 03:02:49;;;;;;;;;;;14.30;99.90;;;;;;5074782;28;19970;-65
2021/12/30 03:05:16;;;;;;;;;;;14.40;99.90;;;;;;5074806;28;19916;-66
2021/12/30 03:07:41;;;;;;;;;;;14.30;99.90;;;;;;5057033;28;19954;-65
2021/12/30 03:10:12;;;;;;;;;;;14.30;99.90;;;;;;5075036;28;20376;-64
2021/12/30 03:12:38;;;;;;;;;;;14.30;99.90;;;;;;5073269;28;20014;-66
2021/12/30 03:15:04;;;;;;;;;;;14.30;99.90;;;;;;5074506;28;20473;-66
2021/12/30 03:17:30;;;;;;;;;;;14.30;99.90;;;;;;5074525;28;19912;-65
2021/12/30 03:19:56;;;;;;;;;;;14.30;99.90;;;;;;5073756;28;19962;-64
2021/12/30 03:22:21;;;;;;;;;;;14.30;99.90;;;;;;5074329;28;19991;-65
2021/12/30 03:24:47;;;;;;;;;;;14.30;99.90;;;;;;5074238;28;20011;-65
2021/12/30 03:27:12;;;;;;;;;;;14.30;99.90;;;;;;5072287;28;19970;-65
2021/12/30 03:29:38;;;;;;;;;;;14.30;99.90;;;;;;5074548;28;19917;-63
2021/12/30 03:32:03;;;;;;;;;;;14.30;99.90;;;;;;5074777;28;20303;-63
2021/12/30 03:34:29;;;;;;;;;;;14.30;99.90;;;;;;5074035;28;19913;-65
2021/12/30 03:36:54;;;;;;;;;;;14.30;99.90;;;;;;5072787;28;19919;-65
2021/12/30 03:39:20;;;;;;;;;;;14.30;99.90;;;;;;5072011;28;20297;-66
2021/12/30 03:41:45;;;;;;;;;;;14.30;99.90;;;;;;5074422;28;19912;-65
2021/12/30 03:44:10;;;;;;;;;;;14.30;99.90;;;;;;5074085;28;19997;-65
2021/12/30 03:46:36;;;;;;;;;;;14.30;99.90;;;;;;5074124;28;19951;-64
2021/12/30 03:49:04;;;;;;;;;;;14.30;99.90;;;;;;5073913;28;19912;-64
2021/12/30 03:51:37;;;;;;;;;;;14.30;99.90;;;;;;5071972;28;19912;-64
2021/12/30 03:54:03;;;;;;;;;;;14.40;99.90;;;;;;5070985;28;19908;-64
2021/12/30 03:56:29;;;;;;;;;;;14.40;99.90;;;;;;5073972;28;19923;-63
2021/12/30 03:58:55;;;;;;;;;;;14.40;99.90;;;;;;5072362;28;20003;-63
2021/12/30 04:01:22;;;;;;;;;;;14.40;99.90;;;;;;5074229;28;19919;-64
2021/12/30 04:03:48;;;;;;;;;;;14.40;99.90;;;;;;5057296;28;19913;-63
2021/12/30 04:06:14;;;;;;;;;;;14.40;99.90;;;;;;5067225;28;19966;-64
2021/12/30 04:08:40;;;;;;;;;;;14.40;99.90;;;;;;5073989;28;19913;-65
2021/12/30 04:11:05;;;;;;;;;;;14.40;99.90;;;;;;5073414;28;20456;-64
2021/12/30 04:13:31;;;;;;;;;;;14.40;99.90;;;;;;5073432;28;19962;-65
2021/12/30 04:15:56;;;;;;;;;;;14.40;99.90;;;;;;5072555;28;19916;-64
2021/12/30 04:18:22;;;;;;;;;;;14.40;99.90;;;;;;5071066;28;20430;-65
2021/12/30 04:20:47;;;;;;;;;;;14.40;99.90;;;;;;5073735;28;19912;-63
2021/12/30 04:23:13;;;;;;;;;;;14.40;99.90;;;;;;5073619;28;20327;-64
2021/12/30 04:25:39;;;;;;;;;;;14.40;99.90;;;;;;5073125;28;19913;-64
2021/12/30 04:28:04;;;;;;;;;;;14.40;99.90;;;;;;5073290;28;20483;-64
2021/12/30 04:30:30;;;;;;;;;;;14.40;99.90;;;;;;5071546;28;19962;-64
2021/12/30 04:32:56;;;;;;;;;;;14.40;99.90;;;;;;5073313;28;19953;-63
2021/12/30 04:35:21;;;;;;;;;;;14.40;99.90;;;;;;5073011;28;19962;-64
2021/12/30 04:37:47;;;;;;;;;;;14.40;99.90;;;;;;5072597;28;20297;-64
2021/12/30 04:40:13;;;;;;;;;;;14.40;99.90;;;;;;5072803;28;19920;-64
2021/12/30 04:42:39;;;;;;;;;;;14.40;99.90;;;;;;5072087;28;20341;-63
2021/12/30 04:45:05;;;;;;;;;;;14.30;99.90;;;;;;5071830;28;20441;-64
2021/12/30 04:47:30;;;;;;;;;;;14.40;99.90;;;;;;5073029;28;19927;-64
2021/12/30 04:49:57;;;;;;;;;;;14.40;99.90;;;;;;5073025;28;20038;-64
2021/12/30 04:52:23;;;;;;;;;;;14.30;99.90;;;;;;5073002;28;19917;-64
2021/12/30 04:54:49;;;;;;;;;;;14.20;99.90;;;;;;5071835;28;19912;-64
2021/12/30 04:57:15;;;;;;;;;;;14.20;99.90;;;;;;5067104;28;19922;-63
2021/12/30 04:59:41;;;;;;;;;;;14.10;99.90;;;;;;5072967;28;19918;-65
2021/12/30 05:02:06;;;;;;;;;;;14.10;99.90;;;;;;5073102;28;19958;-64
2021/12/30 05:04:32;;;;;;;;;;;14.10;99.90;;;;;;5072852;28;19916;-65
2021/12/30 05:06:57;;;;;;;;;;;14.00;99.90;;;;;;5072746;28;20433;-64
2021/12/30 05:09:23;;;;;;;;;;;13.90;99.90;;;;;;5070739;28;19915;-64
2021/12/30 05:11:48;;;;;;;;;;;13.90;99.90;;;;;;5073059;28;20419;-64
2021/12/30 05:14:14;;;;;;;;;;;13.80;99.90;;;;;;5054587;28;19919;-63
2021/12/30 05:16:40;;;;;;;;;;;13.80;99.90;;;;;;5073260;28;19982;-63
2021/12/30 05:19:05;;;;;;;;;;;13.90;99.90;;;;;;5077274;28;19915;-65
2021/12/30 05:21:31;;;;;;;;;;;13.80;99.90;;;;;;5071376;28;20019;-65
2021/12/30 05:23:57;;;;;;;;;;;13.80;99.90;;;;;;5076946;28;19921;-62
2021/12/30 05:26:27;;;;;;;;;;;13.80;99.90;;;;;;5076562;28;19920;-64
2021/12/30 05:28:53;;;;;;;;;;;13.80;99.90;;;;;;5076496;28;19939;-63
2021/12/30 05:31:18;;;;;;;;;;;13.80;99.90;;;;;;5077140;28;19909;-64
2021/12/30 05:33:44;;;;;;;;;;;13.70;99.90;;;;;;5075024;28;19916;-64
2021/12/30 05:36:10;;;;;;;;;;;13.60;99.90;;;;;;5074589;28;19954;-65
2021/12/30 05:38:35;;;;;;;;;;;13.60;99.90;;;;;;5076542;28;19915;-65
2021/12/30 05:41:01;;;;;;;;;;;13.60;99.90;;;;;;5076425;28;19916;-64
2021/12/30 05:43:26;;;;;;;;;;;13.60;99.90;;;;;;5076420;28;19913;-64
2021/12/30 05:45:52;;;;;;;;;;;13.60;99.90;;;;;;5076688;28;20356;-62
2021/12/30 05:48:17;;;;;;;;;;;13.50;99.90;;;;;;5074507;28;19921;-63
2021/12/30 05:50:43;;;;;;;;;;;13.50;99.90;;;;;;5076413;28;19912;-65
2021/12/30 05:53:08;;;;;;;;;;;13.50;99.90;;;;;;5058018;28;19963;-65
2021/12/30 05:55:34;;;;;;;;;;;13.50;99.90;;;;;;5074668;28;19909;-61
2021/12/30 05:57:59;;;;;;;;;;;13.40;99.90;;;;;;5076192;28;19965;-64
2021/12/30 06:00:26;;;;;;;;;;;13.40;99.90;;;;;;5074518;28;19958;-62
2021/12/30 06:02:52;;;;;;;;;;;13.40;99.90;;;;;;5075044;28;19913;-63
2021/12/30 06:05:18;;;;;;;;;;;13.40;99.90;;;;;;5076110;28;20285;-63
2021/12/30 06:07:43;;;;;;;;;;;13.30;99.90;;;;;;5075575;28;20026;-63
2021/12/30 06:10:10;;;;;;;;;;;13.40;99.90;;;;;;5076241;28;19927;-65
2021/12/30 06:12:35;;;;;;;;;;;13.30;99.90;;;;;;5074613;28;20014;-65
2021/12/30 06:15:01;;;;;;;;;;;13.30;99.90;;;;;;5073695;28;19909;-64
2021/12/30 06:17:26;;;;;;;;;;;13.30;99.90;;;;;;5075764;28;19965;-65
2021/12/30 06:19:52;;;;;;;;;;;13.20;99.90;;;;;;5075878;28;19912;-66
2021/12/30 06:22:17;;;;;;;;;;;13.20;99.90;;;;;;5075605;28;19940;-65
2021/12/30 06:24:43;;;;;;;;;;;13.20;99.90;;;;;;5075069;28;19912;-65
2021/12/30 06:27:09;;;;;;;;;;;13.20;99.90;;;;;;5074077;28;20015;-62
2021/12/30 06:29:35;;;;;;;;;;;13.20;99.90;;;;;;5057979;28;19912;-65
2021/12/30 06:32:01;;;;;;;;;;;13.20;99.90;;;;;;5075523;28;20373;-63
2021/12/30 06:34:26;;;;;;;;;;;13.10;99.90;;;;;;5051879;28;19969;-64
2021/12/30 06:36:52;;;;;;;;;;;13.10;99.90;;;;;;5075243;28;20564;-64
2021/12/30 06:39:17;;;;;;;;;;;13.10;99.90;;;;;;5074005;28;20005;-62
2021/12/30 06:41:43;;;;;;;;;;;13.10;99.90;;;;;;5057436;28;19921;-62
2021/12/30 06:44:08;;;;;;;;;;;13.10;99.90;;;;;;5075306;28;19913;-63
2021/12/30 06:46:34;;;;;;;;;;;13.10;99.90;;;;;;5075097;28;19969;-62
2021/12/30 06:49:00;;;;;;;;;;;13.00;99.90;;;;;;5075647;28;19916;-64
2021/12/30 06:51:27;;;;;;;;;;;13.00;99.90;;;;;;5073260;28;19913;-63
2021/12/30 06:53:55;;;;;;;;;;;13.00;99.90;;;;;;5074470;28;19943;-62
2021/12/30 06:56:24;;;;;;;;;;;13.00;99.90;;;;;;5074786;28;19964;-64
2021/12/30 06:58:50;;;;;;;;;;;13.00;99.90;;;;;;5075185;28;19919;-61
2021/12/30 07:01:15;;;;;;;;;;;12.90;99.90;;;;;;5075249;28;19913;-63
2021/12/30 07:03:41;;;;;;;;;;;12.90;99.90;;;;;;5073705;28;20373;-64
2021/12/30 07:06:07;;;;;;;;;;;12.80;99.90;;;;;;5073530;28;19930;-64
2021/12/30 07:08:32;;;;;;;;;;;12.80;99.90;;;;;;5075239;28;19912;-63
2021/12/30 07:10:58;;;;;;;;;;;12.90;99.90;;;;;;5074491;28;19921;-62
2021/12/30 07:13:24;;;;;;;;;;;12.80;99.90;;;;;;5073531;28;19920;-63
2021/12/30 07:15:49;;;;;;;;;;;12.80;99.90;;;;;;5074304;28;19958;-63
2021/12/30 07:18:15;;;;;;;;;;;12.80;99.90;;;;;;5072756;28;20011;-64
2021/12/30 07:20:40;;;;;;;;;;;12.80;99.90;;;;;;5074698;28;19959;-63
2021/12/30 07:23:06;;;;;;;;;;;12.70;99.90;;;;;;5056539;28;19955;-63
2021/12/30 07:25:32;;;;;;;;;;;12.80;99.90;;;;;;5074656;28;20011;-63
2021/12/30 07:27:57;;;;;;;;;;;12.70;99.90;;;;;;5074396;28;19971;-64
2021/12/30 07:30:24;;;;;;;;;;;12.70;99.90;;;;;;5072669;28;20003;-62
2021/12/30 07:32:50;;;;;;;;;;;12.70;99.90;;;;;;5073027;28;19966;-64
2021/12/30 07:35:17;;;;;;;;;;;12.60;99.90;;;;;;5073568;28;20263;-64
2021/12/30 07:37:43;;;;;;;;;;;12.70;99.90;;;;;;5074238;28;19920;-64
2021/12/30 07:40:09;;;;;;;;;;;12.70;99.90;;;;;;5063252;28;19920;-64
2021/12/30 07:42:35;;;;;;;;;;;12.70;99.90;;;;;;5070482;28;20007;-63
2021/12/30 07:45:00;;;;;;;;;;;12.70;99.90;;;;;;5063541;28;20074;-65
2021/12/30 07:47:26;;;;;;;;;;;12.70;99.90;;;;;;5068828;28;19920;-62
2021/12/30 07:49:51;;;;;;;;;;;12.70;99.90;;;;;;5067911;28;19913;-63
2021/12/30 07:52:17;;;;;;;;;;;12.80;99.90;;;;;;5067471;28;19920;-61
2021/12/30 07:54:43;;;;;;;;;;;12.80;99.90;;;;;;5068396;28;19925;-61
2021/12/30 07:57:18;;;;;;;;;;;12.80;99.90;;;;;;5070856;28;19908;-62
2021/12/30 07:59:43;;;;;;;;;;;12.80;99.90;;;;;;5068138;28;19919;-60
2021/12/30 08:02:09;;;;;;;;;;;12.90;99.90;;;;;;5067936;28;20003;-61
2021/12/30 08:04:34;;;;;;;;;;;12.90;99.90;;;;;;5068359;28;20267;-60
2021/12/30 08:07:00;;;;;;;;;;;12.90;99.90;;;;;;5068217;28;19921;-61
2021/12/30 08:09:25;;;;;;;;;;;12.90;99.90;;;;;;5064332;28;20345;-61
2021/12/30 08:11:51;;;;;;;;;;;13.00;99.90;;;;;;5068486;28;19920;-62
2021/12/30 08:14:16;;;;;;;;;;;13.00;99.90;;;;;;5068044;28;20003;-61
2021/12/30 08:16:42;;;;;;;;;;;13.00;99.90;;;;;;5067878;28;19920;-60
2021/12/30 08:19:07;;;;;;;;;;;13.00;99.90;;;;;;5050920;28;20348;-62
2021/12/30 08:21:33;;;;;;;;;;;12.90;99.90;;;;;;5070571;28;19954;-62
2021/12/30 08:23:58;;;;;;;;;;;13.00;99.90;;;;;;5072605;28;19912;-62
2021/12/30 08:26:25;;;;;;;;;;;13.00;99.90;;;;;;5070900;28;20015;-62
2021/12/30 08:28:50;;;;;;;;;;;13.00;99.90;;;;;;5071298;28;20043;-63
2021/12/30 08:31:16;;;;;;;;;;;13.00;99.90;;;;;;5071139;28;20484;-62
2021/12/30 08:33:41;;;;;;;;;;;13.00;99.90;;;;;;5059145;28;19916;-61
2021/12/30 08:36:07;;;;;;;;;;;13.00;99.90;;;;;;5067597;28;19912;-61
2021/12/30 08:38:33;;;;;;;;;;;13.10;99.90;;;;;;5065877;28;19917;-61
2021/12/30 08:40:58;;;;;;;;;;;13.10;99.90;;;;;;5067329;28;19913;-61
2021/12/30 08:43:25;;;;;;;;;;;13.10;99.90;;;;;;5067286;28;20020;-60
2021/12/30 08:45:50;;;;;;;;;;;13.10;99.90;;;;;;5066878;28;19913;-61
2021/12/30 08:48:16;;;;;;;;;;;13.10;99.90;;;;;;5068761;28;19924;-61
2021/12/30 08:50:42;;;;;;;;;;;13.20;99.90;;;;;;5067631;28;20612;-63
2021/12/30 08:53:08;;;;;;;;;;;13.20;99.90;;;;;;5067533;28;19913;-61
2021/12/30 08:55:34;;;;;;;;;;;13.20;99.90;;;;;;5067598;28;19912;-62
2021/12/30 08:58:00;;;;;;;;;;;13.20;99.90;;;;;;5050094;28;19920;-62
2021/12/30 09:00:27;;;;;;;;;;;13.30;99.90;;;;;;5068193;28;19946;-60
2021/12/30 09:02:54;;;;;;;;;;;13.30;99.90;;;;;;5067939;28;19920;-62
2021/12/30 09:05:20;;;;;;;;;;;13.30;99.90;;;;;;5068129;28;19991;-61
2021/12/30 09:07:46;;;;;;;;;;;13.40;99.90;;;;;;5067213;28;20032;-62
2021/12/30 09:10:13;;;;;;;;;;;13.40;99.90;;;;;;5066892;28;19928;-60
2021/12/30 09:12:43;;;;;;;;;;;13.40;99.90;;;;;;5065363;28;20028;-60
2021/12/30 09:15:10;;;;;;;;;;;13.40;99.90;;;;;;5066638;28;19913;-60
2021/12/30 09:17:36;;;;;;;;;;;13.40;99.90;;;;;;5065991;28;19920;-61
2021/12/30 09:20:02;;;;;;;;;;;13.40;99.90;;;;;;5066862;28;19916;-61
2021/12/30 09:22:27;;;;;;;;;;;13.50;99.90;;;;;;5066039;28;19999;-62
2021/12/30 09:24:53;;;;;;;;;;;13.50;99.90;;;;;;5067031;28;20297;-61
2021/12/30 09:27:18;;;;;;;;;;;13.50;99.90;;;;;;5067616;28;19932;-62
2021/12/30 09:29:44;;;;;;;;;;;13.50;99.90;;;;;;5065589;28;19923;-62
2021/12/30 09:32:09;;;;;;;;;;;13.50;99.90;;;;;;5066691;28;19912;-63
2021/12/30 09:34:35;;;;;;;;;;;13.60;99.90;;;;;;5066683;28;19916;-61
2021/12/30 09:37:00;;;;;;;;;;;13.60;99.90;;;;;;5065890;28;19917;-61
2021/12/30 09:39:26;;;;;;;;;;;13.60;99.90;;;;;;5067007;28;20434;-61
2021/12/30 09:41:52;;;;;;;;;;;13.70;99.90;;;;;;5049164;28;20419;-60
2021/12/30 09:44:18;;;;;;;;;;;13.70;99.90;;;;;;5065608;28;20282;-59
2021/12/30 09:46:44;;;;;;;;;;;13.70;99.90;;;;;;5064981;28;20290;-61
2021/12/30 09:49:11;;;;;;;;;;;13.70;99.90;;;;;;5066033;28;19931;-61
2021/12/30 09:51:37;;;;;;;;;;;13.70;99.90;;;;;;5043406;28;20320;-62
2021/12/30 09:54:04;;;;;;;;;;;13.80;99.90;;;;;;5067933;28;19913;-62
2021/12/30 09:56:29;;;;;;;;;;;13.80;99.90;;;;;;5045945;28;19920;-61
2021/12/30 09:58:55;;;;;;;;;;;13.80;99.90;;;;;;5066844;28;19973;-61
2021/12/30 10:01:21;;;;;;;;;;;13.90;99.90;;;;;;5066850;28;19917;-60
2021/12/30 10:03:47;;;;;;;;;;;13.90;99.90;;;;;;5069872;28;19940;-59
2021/12/30 10:06:13;;;;;;;;;;;13.90;99.90;;;;;;5073263;28;20377;-61
2021/12/30 10:08:43;;;;;;;;;;;14.00;99.90;;;;;;5070035;28;19970;-61
2021/12/30 10:11:13;;;;;;;;;;;14.00;99.90;;;;;;5069855;28;19936;-61
2021/12/30 10:13:41;;;;;;;;;;;14.00;99.90;;;;;;5070067;28;19923;-61
2021/12/30 10:16:10;;;;;;;;;;;14.00;99.90;;;;;;5070260;28;19917;-61
2021/12/30 10:18:50;;;;;;;;;;;14.00;99.90;;;;;;5072164;28;19913;-62
2021/12/30 10:21:24;;;;;;;;;;;14.00;99.90;;;;;;5074041;28;20405;-61
2021/12/30 10:23:52;;;;;;;;;;;14.00;99.90;;;;;;5071097;28;20053;-62
2021/12/30 10:26:21;;;;;;;;;;;14.00;99.90;;;;;;5069765;28;19917;-61
2021/12/30 10:28:57;;;;;;;;;;;14.00;99.90;;;;;;5069406;28;19917;-59
2021/12/30 10:31:24;;;;;;;;;;;14.00;99.90;;;;;;5070590;28;19913;-62
2021/12/30 10:33:55;;;;;;;;;;;14.00;99.90;;;;;;5054234;28;19912;-62
2021/12/30 10:36:27;;;;;;;;;;;14.00;99.90;;;;;;5069452;28;19916;-61
2021/12/30 10:38:53;;;;;;;;;;;14.10;99.90;;;;;;5070700;28;19909;-62
2021/12/30 10:41:25;;;;;;;;;;;14.10;99.90;;;;;;5075289;28;19919;-62
2021/12/30 10:43:55;;;;;;;;;;;14.20;99.90;;;;;;5075344;28;19912;-63
2021/12/30 10:46:22;;;;;;;;;;;14.20;99.90;;;;;;5073917;28;19912;-61
2021/12/30 10:49:09;;;;;;;;;;;14.20;99.90;;;;;;5074406;28;19919;-61
2021/12/30 10:51:37;;;;;;;;;;;14.30;99.90;;;;;;5070883;28;19974;-60
2021/12/30 10:54:24;;;;;;;;;;;14.30;99.90;;;;;;5071447;28;19947;-61
2021/12/30 10:56:54;;;;;;;;;;;14.40;99.90;;;;;;5073058;28;20376;-61
2021/12/30 10:59:22;;;;;;;;;;;14.40;99.90;;;;;;5074860;28;19913;-62
2021/12/30 11:01:52;;;;;;;;;;;14.40;99.90;;;;;;5074673;28;19916;-62
2021/12/30 11:04:18;;;;;;;;;;;14.40;99.90;;;;;;5074817;28;20385;-62
2021/12/30 11:06:43;;;;;;;;;;;14.40;99.90;;;;;;5073444;28;19987;-61
2021/12/30 11:09:11;;;;;;;;;;;14.50;99.90;;;;;;5072701;28;19920;-62
2021/12/30 11:11:39;;;;;;;;;;;14.60;99.90;;;;;;5074149;28;19975;-62
2021/12/30 11:14:06;;;;;;;;;;;14.50;99.90;;;;;;5073464;28;19975;-61
2021/12/30 11:16:32;;;;;;;;;;;14.60;99.90;;;;;;5074683;28;19965;-62
2021/12/30 11:18:58;;;;;;;;;;;14.60;99.90;;;;;;5074349;28;19912;-62
2021/12/30 11:21:35;;;;;;;;;;;14.60;99.90;;;;;;5072133;28;19914;-61
2021/12/30 11:24:02;;;;;;;;;;;14.70;99.90;;;;;;5070431;28;19908;-62
2021/12/30 11:26:28;;;;;;;;;;;14.70;99.90;;;;;;5072994;28;19924;-62
2021/12/30 11:28:54;;;;;;;;;;;14.80;99.90;;;;;;5074747;28;19912;-62
2021/12/30 11:31:20;;;;;;;;;;;14.80;99.90;;;;;;5074428;28;19919;-61
2021/12/30 11:33:45;;;;;;;;;;;14.70;99.90;;;;;;5073290;28;19916;-62
2021/12/30 11:36:11;;;;;;;;;;;14.70;99.90;;;;;;5073015;28;20332;-61
2021/12/30 11:38:36;;;;;;;;;;;14.80;99.90;;;;;;5074717;28;19917;-62
2021/12/30 11:41:02;;;;;;;;;;;14.80;99.90;;;;;;5074341;28;19917;-62
2021/12/30 11:43:40;;;;;;;;;;;14.80;99.90;;;;;;5074076;28;19912;-62
2021/12/30 11:46:06;;;;;;;;;;;14.80;99.90;;;;;;5072982;28;19913;-63
2021/12/30 11:48:38;;;;;;;;;;;14.80;99.90;;;;;;5072734;28;19917;-62
2021/12/30 11:51:07;;;;;;;;;;;14.90;99.90;;;;;;5070392;28;19913;-62
2021/12/30 11:53:33;;;;;;;;;;;14.90;99.90;;;;;;5074093;28;19955;-62
2021/12/30 11:55:58;;;;;;;;;;;14.90;99.90;;;;;;5055707;28;19951;-62
2021/12/30 11:58:42;;;;;;;;;;;14.90;99.90;;;;;;5073847;28;19939;-62
2021/12/30 12:01:10;;;;;;;;;;;14.90;99.90;;;;;;5073565;28;19938;-63
2021/12/30 12:03:37;;;;;;;;;;;15.00;99.90;;;;;;5072350;28;19915;-62
2021/12/30 12:06:27;;;;;;;;;;;15.00;99.90;;;;;;5071565;28;19909;-62
2021/12/30 12:08:52;;;;;;;;;;;15.00;99.90;;;;;;5071636;28;19920;-62
2021/12/30 12:11:20;;;;;;;;;;;15.10;99.90;;;;;;5072973;28;20359;-62
2021/12/30 12:13:46;;;;;;;;;;;15.10;99.90;;;;;;5072857;28;19982;-62
2021/12/30 12:16:35;;;;;;;;;;;15.10;99.90;;;;;;5072816;28;19927;-61
2021/12/30 12:19:05;;;;;;;;;;;15.10;99.90;;;;;;5047401;28;19957;-61
2021/12/30 12:21:41;;;;;;;;;;;15.00;99.90;;;;;;5070694;28;19914;-62
2021/12/30 12:24:21;;;;;;;;;;;15.10;99.90;;;;;;5063753;28;20003;-62
2021/12/30 12:26:50;;;;;;;;;;;15.10;99.90;;;;;;5045050;28;20357;-63
2021/12/30 12:29:27;;;;;;;;;;;15.20;99.90;;;;;;5066862;28;19984;-63
2021/12/30 12:31:55;;;;;;;;;;;15.10;99.90;;;;;;5066440;28;19912;-63
2021/12/30 12:34:32;;;;;;;;;;;15.20;99.90;;;;;;5066116;28;20003;-63
2021/12/30 12:36:57;;;;;;;;;;;15.20;99.90;;;;;;5066695;28;20377;-63
2021/12/30 12:39:34;;;;;;;;;;;15.30;99.90;;;;;;5067866;28;19913;-62
2021/12/30 12:42:00;;;;;;;;;;;15.20;99.90;;;;;;5067887;28;19919;-62
2021/12/30 12:44:25;;;;;;;;;;;15.10;99.90;;;;;;5065894;28;20006;-60
2021/12/30 12:46:52;;;;;;;;;;;15.10;99.90;;;;;;5066873;28;19928;-62
2021/12/30 12:49:32;;;;;;;;;;;15.10;99.90;;;;;;5066655;28;19985;-62
2021/12/30 12:51:59;;;;;;;;;;;15.10;99.90;;;;;;5065628;28;19944;-62
2021/12/30 12:54:48;;;;;;;;;;;15.10;99.90;;;;;;5067965;28;19919;-62
2021/12/30 12:57:17;;;;;;;;;;;15.10;99.90;;;;;;5057912;28;20041;-62
2021/12/30 12:59:43;;;;;;;;;;;15.10;99.90;;;;;;5067253;28;19919;-61
2021/12/30 13:02:10;;;;;;;;;;;15.10;99.90;;;;;;5067023;28;19921;-62
2021/12/30 13:04:36;;;;;;;;;;;15.10;99.90;;;;;;5066762;28;19959;-62
2021/12/30 13:07:09;;;;;;;;;;;15.00;99.90;;;;;;5067131;28;19964;-63
2021/12/30 13:09:35;;;;;;;;;;;15.00;99.90;;;;;;5067053;28;19923;-61
2021/12/30 13:12:03;;;;;;;;;;;14.90;99.90;;;;;;5068417;28;20340;-63
2021/12/30 13:14:29;;;;;;;;;;;14.80;99.90;;;;;;5067295;28;19919;-64
2021/12/30 13:16:56;;;;;;;;;;;14.80;99.90;;;;;;5066912;28;19919;-62
2021/12/30 13:19:23;;;;;;;;;;;14.80;99.90;;;;;;5067417;28;19935;-62
2021/12/30 13:22:00;;;;;;;;;;;14.70;99.90;;;;;;5066507;28;20428;-63
2021/12/30 13:24:26;;;;;;;;;;;14.70;99.90;;;;;;5067430;28;19935;-61
2021/12/30 13:26:52;;;;;;;;;;;14.70;99.90;;;;;;5067751;28;19924;-63
2021/12/30 13:29:28;;;;;;;;;;;14.60;99.90;;;;;;5067237;28;20230;-61
2021/12/30 13:31:59;;;;;;;;;;;14.60;99.90;;;;;;5066764;28;19913;-61
2021/12/30 13:34:25;;;;;;;;;;;14.60;99.90;;;;;;5065187;28;20384;-62
2021/12/30 13:36:50;;;;;;;;;;;14.60;99.90;;;;;;5067200;28;19913;-63
2021/12/30 13:39:17;;;;;;;;;;;14.50;99.90;;;;;;5072037;28;19922;-61
2021/12/30 13:41:50;;;;;;;;;;;14.60;99.90;;;;;;5070781;28;19940;-61
2021/12/30 13:44:16;;;;;;;;;;;14.50;99.90;;;;;;5070740;28;19917;-62
2021/12/30 13:46:41;;;;;;;;;;;14.50;99.90;;;;;;5069423;28;20407;-60
2021/12/30 13:49:07;;;;;;;;;;;14.50;99.90;;;;;;5070396;28;19927;-61
2021/12/30 13:51:33;;;;;;;;;;;14.50;99.90;;;;;;5069860;28;19935;-62
2021/12/30 13:53:58;;;;;;;;;;;14.50;99.90;;;;;;5071434;28;19927;-62
2021/12/30 13:56:25;;;;;;;;;;;14.50;99.90;;;;;;5070295;28;19917;-63
2021/12/30 13:58:51;;;;;;;;;;;14.40;99.90;;;;;;5069932;28;19913;-62
2021/12/30 14:01:18;;;;;;;;;;;14.40;99.90;;;;;;5070145;28;19912;-62
2021/12/30 14:03:49;;;;;;;;;;;14.30;99.90;;;;;;5069503;28;19967;-62
2021/12/30 14:06:21;;;;;;;;;;;14.30;99.90;;;;;;5071942;28;19912;-62
2021/12/30 14:08:52;;;;;;;;;;;14.30;99.90;;;;;;5069772;28;20489;-62
2021/12/30 14:11:25;;;;;;;;;;;14.30;99.90;;;;;;5070741;28;20196;-62
2021/12/30 14:13:51;;;;;;;;;;;14.30;99.90;;;;;;5070452;28;20431;-61
2021/12/30 14:16:27;;;;;;;;;;;14.20;99.90;;;;;;5070165;28;20596;-62
2021/12/30 14:18:54;;;;;;;;;;;14.30;99.90;;;;;;5069596;28;20369;-64